sensor_id;sensor_type;location;lat;lon;timestamp;pressure;altitude;pressure_sealevel;temperature;humidity
62055;BME280;48653;51.742;-1.256;2024-02-23T00:03:46;97888.18;;;2.29;54.97
62055;BME280;48653;51.742;-1.256;2024-02-23T00:06:11;97895.72;;;2.99;54.72
62055;BME280;48653;51.742;-1.256;2024-02-23T00:08:36;97891.82;;;2.89;54.20
62055;BME280;48653;51.742;-1.256;2024-02-23T00:11:01;97888.20;;;3.22;54.35
62055;BME280;48653;51.742;-1.256;2024-02-23T00:13:26;97891.38;;;3.26;54.66
62055;BME280;48653;51.742;-1.256;2024-02-23T00:15:51;97890.32;;;2.59;55.04
62055;BME280;48653;51.742;-1.256;2024-02-23T00:18:17;97883.60;;;3.02;54.97
62055;BME280;48653;51.742;-1.256;2024-02-23T00:20:42;97881.05;;;3.29;55.10
62055;BME280;48653;51.742;-1.256;2024-02-23T00:23:07;97879.64;;;2.77;56.00
62055;BME280;48653;51.742;-1.256;2024-02-23T00:25:32;97880.94;;;1.98;58.37
62055;BME280;48653;51.742;-1.256;2024-02-23T00:30:23;97867.39;;;2.17;57.64
62055;BME280;48653;51.742;-1.256;2024-02-23T00:32:48;97859.87;;;3.03;55.99
62055;BME280;48653;51.742;-1.256;2024-02-23T00:35:14;97864.40;;;2.65;56.49
62055;BME280;48653;51.742;-1.256;2024-02-23T00:37:40;97864.53;;;2.94;56.00
62055;BME280;48653;51.742;-1.256;2024-02-23T00:40:06;97854.54;;;2.79;56.32
62055;BME280;48653;51.742;-1.256;2024-02-23T00:42:30;97841.59;;;2.97;55.92
62055;BME280;48653;51.742;-1.256;2024-02-23T00:44:57;97846.15;;;2.24;57.27
62055;BME280;48653;51.742;-1.256;2024-02-23T00:47:21;97846.96;;;2.52;56.80
62055;BME280;48653;51.742;-1.256;2024-02-23T00:49:47;97840.63;;;2.57;57.34
62055;BME280;48653;51.742;-1.256;2024-02-23T00:52:12;97851.05;;;2.67;56.41
62055;BME280;48653;51.742;-1.256;2024-02-23T00:54:37;97840.90;;;2.50;56.70
62055;BME280;48653;51.742;-1.256;2024-02-23T00:57:02;97836.94;;;2.53;57.47
62055;BME280;48653;51.742;-1.256;2024-02-23T00:59:27;97824.04;;;2.66;56.54
62055;BME280;48653;51.742;-1.256;2024-02-23T01:01:52;97824.01;;;3.16;54.52
62055;BME280;48653;51.742;-1.256;2024-02-23T01:04:17;97814.36;;;3.03;55.21
62055;BME280;48653;51.742;-1.256;2024-02-23T01:06:43;97809.16;;;2.98;54.92
62055;BME280;48653;51.742;-1.256;2024-02-23T01:09:08;97802.61;;;2.52;56.32
62055;BME280;48653;51.742;-1.256;2024-02-23T01:11:33;97797.90;;;2.89;56.37
62055;BME280;48653;51.742;-1.256;2024-02-23T01:13:58;97798.96;;;2.51;57.50
62055;BME280;48653;51.742;-1.256;2024-02-23T01:16:23;97799.03;;;2.34;57.86
62055;BME280;48653;51.742;-1.256;2024-02-23T01:18:48;97794.12;;;2.65;57.80
62055;BME280;48653;51.742;-1.256;2024-02-23T01:21:13;97795.14;;;2.74;57.30
62055;BME280;48653;51.742;-1.256;2024-02-23T01:23:38;97791.49;;;3.14;57.28
62055;BME280;48653;51.742;-1.256;2024-02-23T01:26:04;97786.27;;;2.97;57.51
62055;BME280;48653;51.742;-1.256;2024-02-23T01:28:30;97785.68;;;3.14;56.44
62055;BME280;48653;51.742;-1.256;2024-02-23T01:30:55;97781.74;;;3.37;55.24
62055;BME280;48653;51.742;-1.256;2024-02-23T01:33:21;97780.22;;;3.48;54.42
62055;BME280;48653;51.742;-1.256;2024-02-23T01:35:45;97779.75;;;3.44;55.26
62055;BME280;48653;51.742;-1.256;2024-02-23T01:38:11;97780.04;;;3.39;55.04
62055;BME280;48653;51.742;-1.256;2024-02-23T01:40:36;97779.02;;;2.82;56.53
62055;BME280;48653;51.742;-1.256;2024-02-23T01:43:02;97775.94;;;3.46;54.93
62055;BME280;48653;51.742;-1.256;2024-02-23T01:45:26;97770.79;;;2.83;56.15
62055;BME280;48653;51.742;-1.256;2024-02-23T01:47:51;97772.57;;;3.69;54.34
62055;BME280;48653;51.742;-1.256;2024-02-23T01:50:16;97767.70;;;3.50;54.87
62055;BME280;48653;51.742;-1.256;2024-02-23T01:52:41;97762.67;;;3.46;54.25
62055;BME280;48653;51.742;-1.256;2024-02-23T01:55:08;97764.78;;;3.74;54.61
62055;BME280;48653;51.742;-1.256;2024-02-23T01:57:32;97760.95;;;3.83;53.58
62055;BME280;48653;51.742;-1.256;2024-02-23T01:59:58;97755.99;;;3.78;53.88
62055;BME280;48653;51.742;-1.256;2024-02-23T02:02:23;97756.06;;;4.15;53.61
62055;BME280;48653;51.742;-1.256;2024-02-23T02:04:48;97751.65;;;3.47;54.67
62055;BME280;48653;51.742;-1.256;2024-02-23T02:07:13;97740.75;;;4.54;53.23
62055;BME280;48653;51.742;-1.256;2024-02-23T02:09:38;97737.71;;;4.52;53.22
62055;BME280;48653;51.742;-1.256;2024-02-23T02:12:03;97737.43;;;4.31;53.26
62055;BME280;48653;51.742;-1.256;2024-02-23T02:14:28;97734.26;;;4.05;55.04
62055;BME280;48653;51.742;-1.256;2024-02-23T02:16:54;97732.41;;;4.00;54.67
62055;BME280;48653;51.742;-1.256;2024-02-23T02:19:18;97729.95;;;4.12;55.08
62055;BME280;48653;51.742;-1.256;2024-02-23T02:21:44;97725.94;;;4.25;54.51
62055;BME280;48653;51.742;-1.256;2024-02-23T02:24:09;97728.08;;;3.75;56.05
62055;BME280;48653;51.742;-1.256;2024-02-23T02:26:35;97727.92;;;3.61;57.18
62055;BME280;48653;51.742;-1.256;2024-02-23T02:28:59;97728.72;;;3.41;58.12
62055;BME280;48653;51.742;-1.256;2024-02-23T02:31:24;97731.57;;;2.90;60.43
62055;BME280;48653;51.742;-1.256;2024-02-23T02:33:49;97723.92;;;3.02;61.05
62055;BME280;48653;51.742;-1.256;2024-02-23T02:36:15;97736.35;;;4.13;58.24
62055;BME280;48653;51.742;-1.256;2024-02-23T02:38:40;97740.24;;;2.34;62.45
62055;BME280;48653;51.742;-1.256;2024-02-23T02:41:05;97732.03;;;2.08;63.27
62055;BME280;48653;51.742;-1.256;2024-02-23T02:43:32;97728.07;;;2.39;62.39
62055;BME280;48653;51.742;-1.256;2024-02-23T02:45:56;97725.38;;;2.22;62.50
62055;BME280;48653;51.742;-1.256;2024-02-23T02:48:21;97719.86;;;2.40;62.58
62055;BME280;48653;51.742;-1.256;2024-02-23T02:50:46;97715.27;;;3.01;61.16
62055;BME280;48653;51.742;-1.256;2024-02-23T02:53:11;97710.52;;;2.88;61.16
62055;BME280;48653;51.742;-1.256;2024-02-23T02:55:36;97706.57;;;3.38;59.72
62055;BME280;48653;51.742;-1.256;2024-02-23T02:58:01;97703.76;;;2.82;60.79
62055;BME280;48653;51.742;-1.256;2024-02-23T03:00:27;97707.50;;;3.68;59.37
62055;BME280;48653;51.742;-1.256;2024-02-23T03:02:52;97705.41;;;3.31;59.83
62055;BME280;48653;51.742;-1.256;2024-02-23T03:05:17;97706.44;;;3.61;58.69
62055;BME280;48653;51.742;-1.256;2024-02-23T03:07:42;97702.99;;;3.71;59.37
62055;BME280;48653;51.742;-1.256;2024-02-23T03:10:08;97705.42;;;3.75;59.22
62055;BME280;48653;51.742;-1.256;2024-02-23T03:12:33;97709.33;;;3.79;58.23
62055;BME280;48653;51.742;-1.256;2024-02-23T03:14:58;97703.37;;;3.61;59.03
62055;BME280;48653;51.742;-1.256;2024-02-23T03:17:23;97691.36;;;2.97;60.90
62055;BME280;48653;51.742;-1.256;2024-02-23T03:19:48;97687.91;;;3.95;58.75
62055;BME280;48653;51.742;-1.256;2024-02-23T03:22:13;97683.76;;;3.47;59.52
62055;BME280;48653;51.742;-1.256;2024-02-23T03:24:39;97684.69;;;3.46;59.49
62055;BME280;48653;51.742;-1.256;2024-02-23T03:27:04;97679.05;;;3.89;58.52
62055;BME280;48653;51.742;-1.256;2024-02-23T03:29:29;97687.55;;;3.45;59.19
62055;BME280;48653;51.742;-1.256;2024-02-23T03:31:54;97686.11;;;3.22;59.81
62055;BME280;48653;51.742;-1.256;2024-02-23T03:34:19;97694.38;;;3.82;58.50
62055;BME280;48653;51.742;-1.256;2024-02-23T03:36:44;97700.95;;;3.85;58.49
62055;BME280;48653;51.742;-1.256;2024-02-23T03:39:09;97706.96;;;3.22;59.98
62055;BME280;48653;51.742;-1.256;2024-02-23T03:41:35;97718.36;;;3.68;58.63
62055;BME280;48653;51.742;-1.256;2024-02-23T03:44:00;97712.30;;;3.33;59.78
62055;BME280;48653;51.742;-1.256;2024-02-23T03:46:25;97717.08;;;3.90;58.73
62055;BME280;48653;51.742;-1.256;2024-02-23T03:48:50;97718.91;;;3.74;58.37
62055;BME280;48653;51.742;-1.256;2024-02-23T03:51:15;97715.55;;;3.74;58.64
62055;BME280;48653;51.742;-1.256;2024-02-23T03:53:41;97715.44;;;3.08;59.95
62055;BME280;48653;51.742;-1.256;2024-02-23T03:56:06;97715.99;;;3.21;60.48
62055;BME280;48653;51.742;-1.256;2024-02-23T03:58:31;97715.18;;;3.82;58.23
62055;BME280;48653;51.742;-1.256;2024-02-23T04:00:56;97712.91;;;4.26;57.50
62055;BME280;48653;51.742;-1.256;2024-02-23T04:03:21;97722.68;;;2.94;60.26
62055;BME280;48653;51.742;-1.256;2024-02-23T04:05:47;97720.51;;;3.75;59.07
62055;BME280;48653;51.742;-1.256;2024-02-23T04:08:11;97720.75;;;3.67;59.22
62055;BME280;48653;51.742;-1.256;2024-02-23T04:10:37;97718.20;;;3.26;61.52
62055;BME280;48653;51.742;-1.256;2024-02-23T04:13:02;97720.43;;;3.89;59.92
62055;BME280;48653;51.742;-1.256;2024-02-23T04:15:27;97725.95;;;3.14;60.80
62055;BME280;48653;51.742;-1.256;2024-02-23T04:17:52;97729.98;;;3.11;61.55
62055;BME280;48653;51.742;-1.256;2024-02-23T04:20:17;97729.18;;;3.46;60.63
62055;BME280;48653;51.742;-1.256;2024-02-23T04:22:42;97725.80;;;2.80;62.20
62055;BME280;48653;51.742;-1.256;2024-02-23T04:25:08;97731.20;;;2.99;62.50
62055;BME280;48653;51.742;-1.256;2024-02-23T04:27:32;97733.89;;;2.59;63.18
62055;BME280;48653;51.742;-1.256;2024-02-23T04:32:23;97734.31;;;2.98;60.11
62055;BME280;48653;51.742;-1.256;2024-02-23T04:34:48;97737.55;;;2.86;59.82
62055;BME280;48653;51.742;-1.256;2024-02-23T04:37:13;97738.50;;;3.85;57.91
62055;BME280;48653;51.742;-1.256;2024-02-23T04:39:38;97735.81;;;2.11;60.81
62055;BME280;48653;51.742;-1.256;2024-02-23T04:42:04;97735.45;;;3.15;59.07
62055;BME280;48653;51.742;-1.256;2024-02-23T04:44:28;97740.23;;;3.50;57.90
62055;BME280;48653;51.742;-1.256;2024-02-23T04:46:53;97741.29;;;3.71;57.46
62055;BME280;48653;51.742;-1.256;2024-02-23T04:49:19;97747.94;;;3.48;57.86
62055;BME280;48653;51.742;-1.256;2024-02-23T04:51:44;97740.42;;;3.55;58.61
62055;BME280;48653;51.742;-1.256;2024-02-23T04:54:09;97742.85;;;3.71;57.89
62055;BME280;48653;51.742;-1.256;2024-02-23T04:56:34;97740.86;;;3.40;58.70
62055;BME280;48653;51.742;-1.256;2024-02-23T04:58:59;97741.69;;;3.07;58.07
62055;BME280;48653;51.742;-1.256;2024-02-23T05:01:24;97746.83;;;3.97;56.82
62055;BME280;48653;51.742;-1.256;2024-02-23T05:03:49;97744.49;;;3.33;56.86
62055;BME280;48653;51.742;-1.256;2024-02-23T05:06:14;97757.06;;;3.57;56.45
62055;BME280;48653;51.742;-1.256;2024-02-23T05:08:40;97756.61;;;3.65;56.68
62055;BME280;48653;51.742;-1.256;2024-02-23T05:11:05;97749.92;;;3.56;57.30
62055;BME280;48653;51.742;-1.256;2024-02-23T05:13:30;97764.14;;;2.82;59.02
62055;BME280;48653;51.742;-1.256;2024-02-23T05:15:55;97760.18;;;3.00;59.77
62055;BME280;48653;51.742;-1.256;2024-02-23T05:18:20;97763.87;;;2.95;59.70
62055;BME280;48653;51.742;-1.256;2024-02-23T05:20:45;97762.72;;;3.18;60.16
62055;BME280;48653;51.742;-1.256;2024-02-23T05:23:10;97764.39;;;2.80;59.59
62055;BME280;48653;51.742;-1.256;2024-02-23T05:25:36;97758.66;;;2.87;59.31
62055;BME280;48653;51.742;-1.256;2024-02-23T05:28:01;97756.28;;;3.39;58.14
62055;BME280;48653;51.742;-1.256;2024-02-23T05:30:26;97766.66;;;3.22;57.59
62055;BME280;48653;51.742;-1.256;2024-02-23T05:32:51;97770.31;;;3.65;56.55
62055;BME280;48653;51.742;-1.256;2024-02-23T05:35:16;97771.37;;;3.49;57.70
62055;BME280;48653;51.742;-1.256;2024-02-23T05:37:41;97774.31;;;3.29;58.22
62055;BME280;48653;51.742;-1.256;2024-02-23T05:40:07;97769.09;;;3.32;57.51
62055;BME280;48653;51.742;-1.256;2024-02-23T05:42:32;97771.13;;;3.31;58.42
62055;BME280;48653;51.742;-1.256;2024-02-23T05:44:58;97765.71;;;3.29;57.65
62055;BME280;48653;51.742;-1.256;2024-02-23T05:47:24;97768.51;;;3.36;58.06
62055;BME280;48653;51.742;-1.256;2024-02-23T05:49:48;97775.12;;;3.60;57.89
62055;BME280;48653;51.742;-1.256;2024-02-23T05:52:13;97775.44;;;3.11;59.55
62055;BME280;48653;51.742;-1.256;2024-02-23T05:54:38;97777.51;;;3.01;59.76
62055;BME280;48653;51.742;-1.256;2024-02-23T05:57:04;97781.78;;;2.97;59.52
62055;BME280;48653;51.742;-1.256;2024-02-23T05:59:29;97787.27;;;2.99;59.80
62055;BME280;48653;51.742;-1.256;2024-02-23T06:01:57;97788.69;;;2.91;60.52
62055;BME280;48653;51.742;-1.256;2024-02-23T06:04:20;97784.71;;;3.20;60.28
62055;BME280;48653;51.742;-1.256;2024-02-23T06:06:44;97785.82;;;2.56;60.42
62055;BME280;48653;51.742;-1.256;2024-02-23T06:09:09;97795.13;;;2.74;60.94
62055;BME280;48653;51.742;-1.256;2024-02-23T06:11:34;97789.88;;;3.60;59.07
62055;BME280;48653;51.742;-1.256;2024-02-23T06:13:59;97786.32;;;3.33;59.53
62055;BME280;48653;51.742;-1.256;2024-02-23T06:16:26;97783.08;;;3.17;58.78
62055;BME280;48653;51.742;-1.256;2024-02-23T06:18:50;97787.32;;;2.86;60.17
62055;BME280;48653;51.742;-1.256;2024-02-23T06:21:20;97789.61;;;2.47;61.59
62055;BME280;48653;51.742;-1.256;2024-02-23T06:23:41;97786.09;;;2.29;62.20
62055;BME280;48653;51.742;-1.256;2024-02-23T06:26:06;97786.42;;;2.88;60.81
62055;BME280;48653;51.742;-1.256;2024-02-23T06:28:31;97793.43;;;2.74;61.05
62055;BME280;48653;51.742;-1.256;2024-02-23T06:30:56;97792.66;;;3.00;59.10
62055;BME280;48653;51.742;-1.256;2024-02-23T06:33:21;97791.99;;;3.51;59.26
62055;BME280;48653;51.742;-1.256;2024-02-23T06:35:46;97790.79;;;2.64;60.56
62055;BME280;48653;51.742;-1.256;2024-02-23T06:38:11;97791.23;;;2.11;61.98
62055;BME280;48653;51.742;-1.256;2024-02-23T06:40:36;97791.76;;;2.92;59.91
62055;BME280;48653;51.742;-1.256;2024-02-23T06:43:02;97789.41;;;2.95;60.73
62055;BME280;48653;51.742;-1.256;2024-02-23T06:45:27;97800.40;;;2.92;60.94
62055;BME280;48653;51.742;-1.256;2024-02-23T06:47:52;97801.75;;;3.13;60.43
62055;BME280;48653;51.742;-1.256;2024-02-23T06:50:17;97799.76;;;2.76;61.21
62055;BME280;48653;51.742;-1.256;2024-02-23T06:52:43;97797.74;;;3.45;59.21
62055;BME280;48653;51.742;-1.256;2024-02-23T06:55:08;97789.41;;;3.79;58.18
62055;BME280;48653;51.742;-1.256;2024-02-23T06:57:33;97792.89;;;3.18;58.89
62055;BME280;48653;51.742;-1.256;2024-02-23T06:59:58;97789.80;;;2.65;61.13
62055;BME280;48653;51.742;-1.256;2024-02-23T07:02:23;97789.66;;;2.96;59.93
62055;BME280;48653;51.742;-1.256;2024-02-23T07:04:48;97794.65;;;3.31;59.53
62055;BME280;48653;51.742;-1.256;2024-02-23T07:07:14;97798.23;;;3.09;59.33
62055;BME280;48653;51.742;-1.256;2024-02-23T07:09:38;97802.25;;;3.69;58.72
62055;BME280;48653;51.742;-1.256;2024-02-23T07:12:05;97805.42;;;3.57;59.10
62055;BME280;48653;51.742;-1.256;2024-02-23T07:14:29;97810.07;;;3.26;59.07
62055;BME280;48653;51.742;-1.256;2024-02-23T07:16:54;97816.84;;;3.59;58.20
62055;BME280;48653;51.742;-1.256;2024-02-23T07:19:19;97816.48;;;3.43;57.89
62055;BME280;48653;51.742;-1.256;2024-02-23T07:21:44;97820.11;;;3.27;58.99
62055;BME280;48653;51.742;-1.256;2024-02-23T07:24:09;97822.20;;;2.72;60.20
62055;BME280;48653;51.742;-1.256;2024-02-23T07:26:34;97822.18;;;3.60;58.88
62055;BME280;48653;51.742;-1.256;2024-02-23T07:29:00;97830.36;;;2.78;60.62
62055;BME280;48653;51.742;-1.256;2024-02-23T07:31:25;97836.23;;;2.51;60.92
62055;BME280;48653;51.742;-1.256;2024-02-23T07:33:50;97840.67;;;3.06;59.67
62055;BME280;48653;51.742;-1.256;2024-02-23T07:36:15;97843.98;;;3.03;60.58
62055;BME280;48653;51.742;-1.256;2024-02-23T07:38:40;97844.71;;;2.79;59.86
62055;BME280;48653;51.742;-1.256;2024-02-23T07:41:05;97847.07;;;2.76;60.23
62055;BME280;48653;51.742;-1.256;2024-02-23T07:43:31;97848.83;;;3.29;58.81
62055;BME280;48653;51.742;-1.256;2024-02-23T07:45:56;97848.30;;;3.42;58.22
62055;BME280;48653;51.742;-1.256;2024-02-23T07:48:22;97848.64;;;2.99;58.46
62055;BME280;48653;51.742;-1.256;2024-02-23T07:50:47;97844.85;;;3.15;58.01
62055;BME280;48653;51.742;-1.256;2024-02-23T07:55:37;97849.01;;;4.07;57.13
62055;BME280;48653;51.742;-1.256;2024-02-23T07:58:03;97853.30;;;3.92;57.50
62055;BME280;48653;51.742;-1.256;2024-02-23T08:00:27;97856.34;;;3.74;57.70
62055;BME280;48653;51.742;-1.256;2024-02-23T08:02:53;97862.85;;;3.77;58.20
62055;BME280;48653;51.742;-1.256;2024-02-23T08:05:18;97861.49;;;3.93;58.13
62055;BME280;48653;51.742;-1.256;2024-02-23T08:07:43;97864.83;;;3.34;59.26
62055;BME280;48653;51.742;-1.256;2024-02-23T08:10:09;97864.89;;;3.91;58.16
62055;BME280;48653;51.742;-1.256;2024-02-23T08:12:34;97870.42;;;3.58;58.72
62055;BME280;48653;51.742;-1.256;2024-02-23T08:14:59;97870.46;;;3.60;58.81
62055;BME280;48653;51.742;-1.256;2024-02-23T08:17:24;97867.38;;;4.01;58.13
62055;BME280;48653;51.742;-1.256;2024-02-23T08:19:49;97874.61;;;3.89;58.65
62055;BME280;48653;51.742;-1.256;2024-02-23T08:22:14;97880.66;;;3.67;59.40
62055;BME280;48653;51.742;-1.256;2024-02-23T08:24:39;97884.57;;;4.08;58.56
62055;BME280;48653;51.742;-1.256;2024-02-23T08:27:05;97889.64;;;4.50;57.66
62055;BME280;48653;51.742;-1.256;2024-02-23T08:29:30;97891.79;;;4.50;57.42
62055;BME280;48653;51.742;-1.256;2024-02-23T08:31:55;97894.29;;;4.26;58.41
62055;BME280;48653;51.742;-1.256;2024-02-23T08:34:20;97892.67;;;3.76;58.81
62055;BME280;48653;51.742;-1.256;2024-02-23T08:36:45;97893.37;;;4.31;57.57
62055;BME280;48653;51.742;-1.256;2024-02-23T08:39:10;97893.40;;;4.05;57.70
62055;BME280;48653;51.742;-1.256;2024-02-23T08:41:35;97901.83;;;4.12;56.98
62055;BME280;48653;51.742;-1.256;2024-02-23T08:44:00;97904.65;;;4.72;56.88
62055;BME280;48653;51.742;-1.256;2024-02-23T08:46:26;97908.38;;;4.24;57.48
62055;BME280;48653;51.742;-1.256;2024-02-23T08:48:51;97911.81;;;4.76;55.90
62055;BME280;48653;51.742;-1.256;2024-02-23T08:51:17;97912.48;;;4.99;55.95
62055;BME280;48653;51.742;-1.256;2024-02-23T08:53:41;97917.97;;;4.98;55.41
62055;BME280;48653;51.742;-1.256;2024-02-23T08:56:07;97924.62;;;5.04;55.29
62055;BME280;48653;51.742;-1.256;2024-02-23T08:58:32;97928.37;;;5.05;55.81
62055;BME280;48653;51.742;-1.256;2024-02-23T09:00:58;97928.44;;;5.00;56.57
62055;BME280;48653;51.742;-1.256;2024-02-23T09:03:24;97929.87;;;5.27;55.81
62055;BME280;48653;51.742;-1.256;2024-02-23T09:05:48;97930.82;;;4.43;57.02
62055;BME280;48653;51.742;-1.256;2024-02-23T09:08:13;97936.49;;;5.41;56.56
62055;BME280;48653;51.742;-1.256;2024-02-23T09:10:38;97940.43;;;5.36;56.45
62055;BME280;48653;51.742;-1.256;2024-02-23T09:13:03;97938.92;;;4.92;57.10
62055;BME280;48653;51.742;-1.256;2024-02-23T09:15:28;97946.07;;;5.52;56.18
62055;BME280;48653;51.742;-1.256;2024-02-23T09:17:53;97943.29;;;5.39;56.11
62055;BME280;48653;51.742;-1.256;2024-02-23T09:20:19;97942.08;;;5.75;55.15
62055;BME280;48653;51.742;-1.256;2024-02-23T09:22:43;97940.81;;;5.80;55.15
62055;BME280;48653;51.742;-1.256;2024-02-23T09:25:09;97945.48;;;5.90;54.88
62055;BME280;48653;51.742;-1.256;2024-02-23T09:27:34;97946.92;;;5.16;56.06
62055;BME280;48653;51.742;-1.256;2024-02-23T09:29:59;97944.20;;;5.45;55.82
62055;BME280;48653;51.742;-1.256;2024-02-23T09:32:24;97945.55;;;5.30;56.22
62055;BME280;48653;51.742;-1.256;2024-02-23T09:34:49;97946.25;;;5.39;55.80
62055;BME280;48653;51.742;-1.256;2024-02-23T09:37:14;97941.26;;;5.42;56.41
62055;BME280;48653;51.742;-1.256;2024-02-23T09:39:40;97934.62;;;5.93;55.36
62055;BME280;48653;51.742;-1.256;2024-02-23T09:42:09;97938.30;;;5.64;55.22
62055;BME280;48653;51.742;-1.256;2024-02-23T09:44:32;97939.38;;;4.71;57.27
62055;BME280;48653;51.742;-1.256;2024-02-23T09:46:55;97938.97;;;5.59;56.14
62055;BME280;48653;51.742;-1.256;2024-02-23T09:49:20;97933.23;;;5.59;55.65
62055;BME280;48653;51.742;-1.256;2024-02-23T09:51:45;97935.02;;;5.81;55.80
62055;BME280;48653;51.742;-1.256;2024-02-23T09:54:10;97938.50;;;5.19;57.37
62055;BME280;48653;51.742;-1.256;2024-02-23T09:56:35;97939.92;;;4.51;58.37
62055;BME280;48653;51.742;-1.256;2024-02-23T09:59:02;97948.06;;;4.71;58.05
62055;BME280;48653;51.742;-1.256;2024-02-23T10:01:28;97948.15;;;5.02;58.09
62055;BME280;48653;51.742;-1.256;2024-02-23T10:03:51;97947.59;;;4.88;58.04
62055;BME280;48653;51.742;-1.256;2024-02-23T10:06:16;97952.90;;;5.10;57.11
62055;BME280;48653;51.742;-1.256;2024-02-23T10:08:41;97951.54;;;5.36;57.31
62055;BME280;48653;51.742;-1.256;2024-02-23T10:11:06;97950.83;;;4.60;57.35
62055;BME280;48653;51.742;-1.256;2024-02-23T10:13:36;97954.54;;;5.21;57.01
62055;BME280;48653;51.742;-1.256;2024-02-23T10:15:56;97958.38;;;5.20;56.83
62055;BME280;48653;51.742;-1.256;2024-02-23T10:18:21;97960.26;;;4.97;56.93
62055;BME280;48653;51.742;-1.256;2024-02-23T10:20:47;97963.96;;;5.99;54.30
62055;BME280;48653;51.742;-1.256;2024-02-23T10:23:11;97969.52;;;5.32;55.80
62055;BME280;48653;51.742;-1.256;2024-02-23T10:25:37;97971.64;;;5.54;55.63
62055;BME280;48653;51.742;-1.256;2024-02-23T10:28:02;97971.00;;;5.88;54.87
62055;BME280;48653;51.742;-1.256;2024-02-23T10:30:27;97971.36;;;6.04;54.40
62055;BME280;48653;51.742;-1.256;2024-02-23T10:32:56;97973.10;;;6.07;54.89
62055;BME280;48653;51.742;-1.256;2024-02-23T10:35:18;97974.95;;;5.86;54.22
62055;BME280;48653;51.742;-1.256;2024-02-23T10:37:43;97980.65;;;5.13;55.50
62055;BME280;48653;51.742;-1.256;2024-02-23T10:40:08;97980.00;;;5.66;54.40
62055;BME280;48653;51.742;-1.256;2024-02-23T10:42:34;97982.47;;;5.85;54.86
62055;BME280;48653;51.742;-1.256;2024-02-23T10:44:58;97977.84;;;4.92;56.33
62055;BME280;48653;51.742;-1.256;2024-02-23T10:47:23;97982.40;;;5.87;55.39
62055;BME280;48653;51.742;-1.256;2024-02-23T10:49:48;97984.68;;;5.04;56.43
62055;BME280;48653;51.742;-1.256;2024-02-23T10:52:14;97987.94;;;5.18;55.97
62055;BME280;48653;51.742;-1.256;2024-02-23T10:54:39;97989.54;;;5.20;56.15
62055;BME280;48653;51.742;-1.256;2024-02-23T10:57:04;97990.74;;;5.06;55.68
62055;BME280;48653;51.742;-1.256;2024-02-23T10:59:29;97994.09;;;5.27;56.15
62055;BME280;48653;51.742;-1.256;2024-02-23T11:01:54;97991.12;;;5.72;53.89
62055;BME280;48653;51.742;-1.256;2024-02-23T11:04:20;97990.33;;;5.83;53.65
62055;BME280;48653;51.742;-1.256;2024-02-23T11:06:49;97991.95;;;6.52;52.24
62055;BME280;48653;51.742;-1.256;2024-02-23T11:09:12;97994.44;;;6.32;52.39
62055;BME280;48653;51.742;-1.256;2024-02-23T11:11:36;97993.80;;;7.00;51.57
62055;BME280;48653;51.742;-1.256;2024-02-23T11:14:03;98003.50;;;5.57;55.15
62055;BME280;48653;51.742;-1.256;2024-02-23T11:16:25;98004.55;;;5.71;54.58
62055;BME280;48653;51.742;-1.256;2024-02-23T11:21:15;98001.22;;;5.85;54.35
62055;BME280;48653;51.742;-1.256;2024-02-23T11:23:42;98001.47;;;6.34;54.03
62055;BME280;48653;51.742;-1.256;2024-02-23T11:26:06;98004.51;;;5.59;56.13
62055;BME280;48653;51.742;-1.256;2024-02-23T11:28:30;97992.53;;;6.61;52.77
62055;BME280;48653;51.742;-1.256;2024-02-23T11:30:56;97992.98;;;6.39;54.11
62055;BME280;48653;51.742;-1.256;2024-02-23T11:33:26;97995.12;;;5.81;54.70
62055;BME280;48653;51.742;-1.256;2024-02-23T11:35:46;97999.75;;;5.80;54.76
62055;BME280;48653;51.742;-1.256;2024-02-23T11:38:11;97996.66;;;6.39;54.25
62055;BME280;48653;51.742;-1.256;2024-02-23T11:40:37;97993.57;;;5.93;54.49
62055;BME280;48653;51.742;-1.256;2024-02-23T11:43:01;97993.61;;;6.70;54.10
62055;BME280;48653;51.742;-1.256;2024-02-23T11:45:28;97992.12;;;6.83;52.95
62055;BME280;48653;51.742;-1.256;2024-02-23T11:47:52;97997.19;;;7.00;53.28
62055;BME280;48653;51.742;-1.256;2024-02-23T11:50:19;97992.71;;;7.41;50.70
62055;BME280;48653;51.742;-1.256;2024-02-23T11:52:42;97997.72;;;6.97;52.30
62055;BME280;48653;51.742;-1.256;2024-02-23T11:55:07;97992.66;;;8.29;50.93
62055;BME280;48653;51.742;-1.256;2024-02-23T11:57:32;97989.00;;;7.90;49.89
62055;BME280;48653;51.742;-1.256;2024-02-23T12:00:00;97988.22;;;8.30;48.48
62055;BME280;48653;51.742;-1.256;2024-02-23T12:02:23;97987.76;;;9.18;46.21
62055;BME280;48653;51.742;-1.256;2024-02-23T12:04:47;97987.78;;;9.23;47.40
62055;BME280;48653;51.742;-1.256;2024-02-23T12:07:13;97991.30;;;8.65;45.91
62055;BME280;48653;51.742;-1.256;2024-02-23T12:09:39;97985.03;;;9.38;46.30
62055;BME280;48653;51.742;-1.256;2024-02-23T12:12:04;97983.93;;;9.51;46.21
62055;BME280;48653;51.742;-1.256;2024-02-23T12:14:28;97981.00;;;9.50;44.42
62055;BME280;48653;51.742;-1.256;2024-02-23T12:19:22;97977.88;;;10.09;42.16
62055;BME280;48653;51.742;-1.256;2024-02-23T12:21:45;97972.76;;;10.84;42.33
62055;BME280;48653;51.742;-1.256;2024-02-23T12:24:09;97968.25;;;12.13;41.84
62055;BME280;48653;51.742;-1.256;2024-02-23T12:26:34;97967.02;;;10.96;41.36
62055;BME280;48653;51.742;-1.256;2024-02-23T12:29:00;97970.25;;;10.61;42.97
62055;BME280;48653;51.742;-1.256;2024-02-23T12:31:24;97967.37;;;11.46;40.99
62055;BME280;48653;51.742;-1.256;2024-02-23T12:33:50;97964.29;;;11.88;40.78
62055;BME280;48653;51.742;-1.256;2024-02-23T12:36:15;97965.63;;;9.74;40.98
62055;BME280;48653;51.742;-1.256;2024-02-23T12:38:39;97961.92;;;9.89;41.58
62055;BME280;48653;51.742;-1.256;2024-02-23T12:41:05;97962.31;;;9.73;43.29
62055;BME280;48653;51.742;-1.256;2024-02-23T12:43:29;97956.11;;;9.92;42.95
62055;BME280;48653;51.742;-1.256;2024-02-23T12:45:55;97956.98;;;9.75;44.06
62055;BME280;48653;51.742;-1.256;2024-02-23T12:48:20;97954.83;;;8.79;42.60
62055;BME280;48653;51.742;-1.256;2024-02-23T12:50:46;97946.75;;;8.52;43.40
62055;BME280;48653;51.742;-1.256;2024-02-23T12:55:37;97950.97;;;9.71;43.12
62055;BME280;48653;51.742;-1.256;2024-02-23T12:58:01;97950.56;;;9.11;43.30
62055;BME280;48653;51.742;-1.256;2024-02-23T13:00:26;97948.11;;;9.20;42.79
62055;BME280;48653;51.742;-1.256;2024-02-23T13:02:51;97957.61;;;8.88;43.77
62055;BME280;48653;51.742;-1.256;2024-02-23T13:05:16;97957.66;;;8.57;45.20